createdAt,value
2023-05-14T00:00:13.875Z,24.77
2023-05-14T00:01:14.890Z,24.80
2023-05-14T00:02:13.957Z,24.79
2023-05-14T00:03:15.027Z,24.79
2023-05-14T00:04:13.963Z,24.76
2023-05-14T00:05:14.347Z,24.77
2023-05-14T00:06:13.888Z,24.76
2023-05-14T00:07:13.880Z,24.79
2023-05-14T00:08:13.898Z,24.77
2023-05-14T00:09:13.883Z,24.77
2023-05-14T00:10:13.918Z,24.77
2023-05-14T00:11:13.861Z,24.76
2023-05-14T00:12:13.909Z,24.77
2023-05-14T00:13:13.983Z,24.77
2023-05-14T00:14:14.015Z,24.80
2023-05-14T00:15:14.083Z,24.77
2023-05-14T00:16:14.964Z,24.74
2023-05-14T00:17:14.205Z,24.79
2023-05-14T00:18:14.241Z,24.77
2023-05-14T00:19:14.921Z,24.79
2023-05-14T00:20:14.868Z,24.79
2023-05-14T00:21:14.441Z,24.74
2023-05-14T00:22:14.508Z,24.77
2023-05-14T00:23:14.574Z,24.76
2023-05-14T00:24:14.625Z,24.76
2023-05-14T00:25:14.697Z,24.79
2023-05-14T00:26:14.736Z,24.76
2023-05-14T00:27:14.820Z,24.77
2023-05-14T00:28:14.879Z,24.77
2023-05-14T00:29:14.946Z,24.76
2023-05-14T00:30:15.392Z,24.79
2023-05-14T00:31:15.088Z,24.77
2023-05-14T00:32:15.158Z,24.77
2023-05-14T00:33:15.203Z,24.77
2023-05-14T00:34:15.258Z,24.74
2023-05-14T00:35:16.954Z,24.77
2023-05-14T00:36:17.365Z,24.77
2023-05-14T00:37:17.451Z,24.76
2023-05-14T00:38:15.500Z,24.77
2023-05-14T00:39:15.595Z,24.76
2023-05-14T00:40:15.632Z,24.74
2023-05-14T00:41:15.711Z,24.77
2023-05-14T00:42:15.814Z,24.77
2023-05-14T00:43:15.825Z,24.76
2023-05-14T00:44:15.855Z,24.76
2023-05-14T00:45:15.906Z,24.77
2023-05-14T00:46:16.030Z,24.76
2023-05-14T00:47:16.028Z,24.76
2023-05-14T00:48:16.130Z,24.77
2023-05-14T00:49:16.167Z,24.76
2023-05-14T00:50:16.381Z,24.74
2023-05-14T00:51:16.306Z,24.74
2023-05-14T00:52:16.365Z,24.77
2023-05-14T00:53:16.428Z,24.77
2023-05-14T00:54:16.453Z,24.77
2023-05-14T00:55:16.898Z,24.74
2023-05-14T00:56:16.602Z,24.74
2023-05-14T00:57:16.667Z,24.73
2023-05-14T00:58:16.705Z,24.76
2023-05-14T00:59:16.817Z,24.76
2023-05-14T01:00:16.877Z,24.76
2023-05-14T01:01:16.969Z,24.76
2023-05-14T01:02:17.004Z,24.74
2023-05-14T01:03:17.076Z,24.74
2023-05-14T01:04:17.091Z,24.76
2023-05-14T01:05:17.381Z,24.76
2023-05-14T01:06:17.213Z,24.73
2023-05-14T01:07:17.283Z,24.74
2023-05-14T01:08:17.334Z,24.74
2023-05-14T01:09:17.395Z,24.74
2023-05-14T01:10:17.485Z,24.76
2023-05-14T01:11:18.552Z,24.73
2023-05-14T01:12:17.589Z,24.73
2023-05-14T01:13:17.625Z,24.76
2023-05-14T01:14:17.744Z,24.76
2023-05-14T01:15:17.912Z,24.76
2023-05-14T01:16:17.900Z,24.74
2023-05-14T01:17:17.940Z,24.73
2023-05-14T01:18:17.972Z,24.74
2023-05-14T01:19:18.116Z,24.76
2023-05-14T01:20:18.870Z,24.73
2023-05-14T01:21:18.159Z,24.76
2023-05-14T01:22:18.252Z,24.74
2023-05-14T01:23:18.294Z,24.73
2023-05-14T01:24:18.362Z,24.73
2023-05-14T01:25:18.402Z,24.72
2023-05-14T01:26:18.475Z,24.74
2023-05-14T01:27:18.616Z,24.73
2023-05-14T01:28:18.629Z,24.73
2023-05-14T01:29:18.666Z,24.73
2023-05-14T01:30:18.899Z,24.76
2023-05-14T01:31:18.866Z,24.74
2023-05-14T01:32:18.852Z,24.74
2023-05-14T01:33:18.891Z,24.73
2023-05-14T01:34:18.988Z,24.74
2023-05-14T01:35:19.069Z,24.74
2023-05-14T01:36:19.127Z,24.74
2023-05-14T01:37:19.165Z,24.74
2023-05-14T01:38:19.234Z,24.73
2023-05-14T01:39:19.319Z,24.72
2023-05-14T01:40:19.382Z,24.72
2023-05-14T01:41:20.382Z,24.74
2023-05-14T01:42:19.459Z,24.73
2023-05-14T01:43:19.600Z,24.73
2023-05-14T01:44:19.638Z,24.74
2023-05-14T01:45:19.656Z,24.73
2023-05-14T01:46:19.802Z,24.74
2023-05-14T01:47:19.787Z,24.74
2023-05-14T01:48:19.852Z,24.74
2023-05-14T01:49:19.932Z,24.73
2023-05-14T01:50:20.460Z,24.70
2023-05-14T01:51:20.042Z,24.73
2023-05-14T01:52:20.117Z,24.72
2023-05-14T01:53:20.175Z,24.73
2023-05-14T01:54:20.230Z,24.73
2023-05-14T01:55:20.421Z,24.73
2023-05-14T01:56:20.354Z,24.70
2023-05-14T01:57:20.415Z,24.72
2023-05-14T01:58:20.494Z,24.72
2023-05-14T01:59:20.572Z,24.73
2023-05-14T02:00:21.049Z,24.74
2023-05-14T02:01:20.745Z,24.72
2023-05-14T02:02:20.728Z,24.72
2023-05-14T02:03:20.778Z,24.72
2023-05-14T02:04:20.900Z,24.70
2023-05-14T02:05:22.462Z,24.72
2023-05-14T02:06:20.956Z,24.72
2023-05-14T02:07:21.014Z,24.72
2023-05-14T02:08:21.184Z,24.70
2023-05-14T02:09:21.180Z,24.73
2023-05-14T02:10:21.412Z,24.70
2023-05-14T02:11:21.356Z,24.70
2023-05-14T02:12:21.361Z,24.72
2023-05-14T02:13:21.437Z,24.72
2023-05-14T02:14:21.481Z,24.72
2023-05-14T02:15:21.921Z,24.70
2023-05-14T02:16:22.742Z,24.72
2023-05-14T02:17:21.661Z,24.73
2023-05-14T02:18:21.748Z,24.70
2023-05-14T02:19:21.777Z,24.74
2023-05-14T02:20:22.005Z,24.74
2023-05-14T02:21:21.937Z,24.70
2023-05-14T02:22:21.971Z,24.70
2023-05-14T02:23:31.031Z,24.70
2023-05-14T02:24:23.022Z,24.72
2023-05-14T02:25:22.409Z,24.72
2023-05-14T02:26:22.029Z,24.72
2023-05-14T02:27:22.055Z,24.72
2023-05-14T02:28:21.983Z,24.73
2023-05-14T02:29:24.208Z,24.70
2023-05-14T02:30:22.236Z,24.72
2023-05-14T02:31:22.053Z,24.69
2023-05-14T02:32:22.005Z,24.72
2023-05-14T02:33:22.038Z,24.69
2023-05-14T02:34:21.959Z,24.69
2023-05-14T02:35:22.439Z,24.73
2023-05-14T02:36:21.951Z,24.70
2023-05-14T02:37:21.946Z,24.70
2023-05-14T02:38:21.952Z,24.69
2023-05-14T02:39:21.958Z,24.70
2023-05-14T02:40:22.587Z,24.70
2023-05-14T02:41:21.914Z,24.70
2023-05-14T02:42:21.943Z,24.70
2023-05-14T02:43:21.904Z,24.69
2023-05-14T02:44:21.874Z,24.70
2023-05-14T02:45:21.901Z,24.69
2023-05-14T02:46:21.891Z,24.69
2023-05-14T02:47:21.894Z,24.72
2023-05-14T02:48:21.875Z,24.70
2023-05-14T02:49:21.835Z,24.69
2023-05-14T02:50:22.043Z,24.69
2023-05-14T02:51:21.815Z,24.69
2023-05-14T02:52:21.846Z,24.67
2023-05-14T02:53:21.880Z,24.70
2023-05-14T02:54:21.965Z,24.69
2023-05-14T02:55:22.439Z,24.70
2023-05-14T02:56:22.078Z,24.67
2023-05-14T02:57:24.929Z,24.70
2023-05-14T02:58:25.039Z,24.69
2023-05-14T02:59:22.132Z,24.70
2023-05-14T03:00:22.303Z,24.70
2023-05-14T03:01:22.206Z,24.70
2023-05-14T03:02:22.131Z,24.69
2023-05-14T03:03:22.115Z,24.69
2023-05-14T03:04:22.079Z,24.67
2023-05-14T03:05:22.097Z,24.70
2023-05-14T03:06:22.065Z,24.67
2023-05-14T03:07:22.062Z,24.66
2023-05-14T03:08:22.068Z,24.70
2023-05-14T03:09:22.019Z,24.70
2023-05-14T03:10:22.276Z,24.69
2023-05-14T03:11:22.474Z,24.69
2023-05-14T03:12:22.022Z,24.67
2023-05-14T03:13:22.033Z,24.70
2023-05-14T03:14:22.068Z,24.69
2023-05-14T03:15:22.092Z,24.70
2023-05-14T03:16:22.212Z,24.70
2023-05-14T03:17:22.277Z,24.67
2023-05-14T03:18:22.261Z,24.67
2023-05-14T03:19:22.312Z,24.66
2023-05-14T03:20:22.669Z,24.66
2023-05-14T03:21:22.428Z,24.69
2023-05-14T03:22:22.495Z,24.69
2023-05-14T03:23:22.533Z,24.70
2023-05-14T03:24:22.566Z,24.69
2023-05-14T03:25:22.956Z,24.69
2023-05-14T03:26:22.722Z,24.67
2023-05-14T03:27:22.764Z,24.69
2023-05-14T03:28:22.794Z,24.69
2023-05-14T03:29:22.896Z,24.66
2023-05-14T03:30:23.140Z,24.67
2023-05-14T03:31:23.121Z,24.66
2023-05-14T03:32:23.099Z,24.67
2023-05-14T03:33:23.116Z,24.69
2023-05-14T03:34:23.185Z,24.69
2023-05-14T03:35:23.284Z,24.66
2023-05-14T03:36:23.305Z,24.67
2023-05-14T03:37:23.359Z,24.67
2023-05-14T03:38:23.399Z,24.69
2023-05-14T03:39:23.513Z,24.67
2023-05-14T03:40:23.636Z,24.67
2023-05-14T03:41:23.972Z,24.67
2023-05-14T03:42:23.560Z,24.66
2023-05-14T03:43:23.571Z,24.67
2023-05-14T03:44:23.651Z,24.67
2023-05-14T03:45:23.661Z,24.69
2023-05-14T03:46:23.975Z,24.70
2023-05-14T03:47:23.798Z,24.66
2023-05-14T03:48:23.872Z,24.67
2023-05-14T03:49:23.848Z,24.66
2023-05-14T03:50:24.006Z,24.65
2023-05-14T03:51:24.027Z,24.69
2023-05-14T03:52:23.934Z,24.66
2023-05-14T03:53:24.017Z,24.66
2023-05-14T03:54:24.048Z,24.67
2023-05-14T03:55:24.074Z,24.69
2023-05-14T03:56:24.448Z,24.67
2023-05-14T03:57:24.209Z,24.69
2023-05-14T03:58:24.237Z,24.67
2023-05-14T03:59:24.332Z,24.66
2023-05-14T04:00:24.763Z,24.67
2023-05-14T04:01:24.441Z,24.66
2023-05-14T04:02:24.507Z,24.66
2023-05-14T04:03:24.674Z,24.65
2023-05-14T04:04:24.591Z,24.66
2023-05-14T04:05:24.619Z,24.66
2023-05-14T04:06:24.687Z,24.66
2023-05-14T04:07:24.714Z,24.66
2023-05-14T04:08:24.761Z,24.66
2023-05-14T04:09:24.801Z,24.65
2023-05-14T04:10:24.951Z,24.67
2023-05-14T04:11:24.979Z,24.66
2023-05-14T04:12:24.988Z,24.67
2023-05-14T04:13:25.060Z,24.66
2023-05-14T04:14:25.150Z,24.66
2023-05-14T04:15:25.200Z,24.65
2023-05-14T04:16:25.302Z,24.65
2023-05-14T04:17:25.311Z,24.67
2023-05-14T04:18:25.399Z,24.66
2023-05-14T04:19:25.401Z,24.63
2023-05-14T04:20:25.557Z,24.66
2023-05-14T04:21:26.018Z,24.66
2023-05-14T04:22:25.586Z,24.66
2023-05-14T04:23:25.624Z,24.66
2023-05-14T04:24:25.762Z,24.67
2023-05-14T04:25:25.718Z,24.67
2023-05-14T04:26:25.990Z,24.65
2023-05-14T04:27:25.857Z,24.66
2023-05-14T04:28:25.964Z,24.66
2023-05-14T04:29:25.976Z,24.67
2023-05-14T04:30:26.075Z,24.65
2023-05-14T04:31:27.030Z,24.65
2023-05-14T04:32:26.181Z,24.66
2023-05-14T04:33:26.201Z,24.67
2023-05-14T04:34:26.258Z,24.67
2023-05-14T04:35:26.291Z,24.66
2023-05-14T04:36:26.467Z,24.67
2023-05-14T04:37:26.386Z,24.67
2023-05-14T04:38:26.431Z,24.67
2023-05-14T04:39:26.503Z,24.67
2023-05-14T04:40:26.864Z,24.66
2023-05-14T04:41:26.961Z,24.65
2023-05-14T04:42:26.654Z,24.66
2023-05-14T04:43:26.725Z,24.65
2023-05-14T04:44:26.792Z,24.66
2023-05-14T04:45:26.871Z,24.66
2023-05-14T04:46:27.022Z,24.66
2023-05-14T04:47:26.931Z,24.66
2023-05-14T04:48:27.020Z,24.63
2023-05-14T04:49:27.017Z,24.65
2023-05-14T04:50:27.044Z,24.66
2023-05-14T04:51:27.522Z,24.66
2023-05-14T04:52:27.182Z,24.67
2023-05-14T04:53:27.256Z,24.65
2023-05-14T04:54:27.433Z,24.66
2023-05-14T04:55:27.366Z,24.63
2023-05-14T04:56:27.486Z,24.65
2023-05-14T04:57:27.481Z,24.65
2023-05-14T04:58:27.490Z,24.65
2023-05-14T04:59:27.531Z,24.65
2023-05-14T05:00:27.615Z,24.65
2023-05-14T05:01:28.081Z,24.65
2023-05-14T05:02:27.732Z,24.65
2023-05-14T05:03:27.835Z,24.63
2023-05-14T05:04:27.745Z,24.65
2023-05-14T05:05:27.798Z,24.66
2023-05-14T05:06:28.021Z,24.65
2023-05-14T05:07:27.861Z,24.66
2023-05-14T05:08:27.941Z,24.65
2023-05-14T05:09:27.907Z,24.66
2023-05-14T05:10:27.944Z,24.63
2023-05-14T05:11:28.008Z,24.65
2023-05-14T05:12:27.998Z,24.65
2023-05-14T05:13:28.041Z,24.62
2023-05-14T05:14:28.077Z,24.63
2023-05-14T05:15:28.113Z,24.65
2023-05-14T05:16:28.637Z,24.66
2023-05-14T05:17:28.244Z,24.66
2023-05-14T05:18:28.303Z,24.66
2023-05-14T05:19:39.498Z,24.65
2023-05-14T05:20:29.338Z,24.66
2023-05-14T05:21:28.309Z,24.66
2023-05-14T05:22:28.298Z,24.65
2023-05-14T05:23:28.342Z,24.63
2023-05-14T05:24:28.306Z,24.62
2023-05-14T05:25:28.304Z,24.65
2023-05-14T05:26:28.282Z,24.65
2023-05-14T05:27:28.236Z,24.63
2023-05-14T05:28:28.274Z,24.63
2023-05-14T05:29:28.232Z,24.63
2023-05-14T05:30:28.228Z,24.65
2023-05-14T05:31:28.259Z,24.66
2023-05-14T05:32:28.284Z,24.63
2023-05-14T05:33:28.308Z,24.66
2023-05-14T05:34:28.315Z,24.63
2023-05-14T05:35:28.332Z,24.63
2023-05-14T05:36:28.395Z,24.65
2023-05-14T05:37:28.390Z,24.65
2023-05-14T05:38:28.420Z,24.63
2023-05-14T05:39:28.427Z,24.65
2023-05-14T05:40:28.457Z,24.65
2023-05-14T05:41:28.470Z,24.65
2023-05-14T05:42:28.554Z,24.62
2023-05-14T05:43:28.526Z,24.63
2023-05-14T05:44:28.587Z,24.65
2023-05-14T05:45:28.640Z,24.63
2023-05-14T05:46:28.693Z,24.65
2023-05-14T05:47:28.769Z,24.63
2023-05-14T05:48:28.756Z,24.63
2023-05-14T05:49:28.770Z,24.65
2023-05-14T05:50:28.810Z,24.62
2023-05-14T05:51:28.893Z,24.63
2023-05-14T05:52:28.912Z,24.63
2023-05-14T05:53:29.046Z,24.62
2023-05-14T05:54:28.987Z,24.62
2023-05-14T05:55:29.016Z,24.63
2023-05-14T05:56:29.081Z,24.63
2023-05-14T05:57:29.101Z,24.65
2023-05-14T05:58:29.145Z,24.62
2023-05-14T05:59:29.258Z,24.65
2023-05-14T06:00:29.330Z,24.65
2023-05-14T06:01:29.337Z,24.63
2023-05-14T06:02:29.468Z,24.63
2023-05-14T06:03:29.430Z,24.65
2023-05-14T06:04:29.579Z,24.62
2023-05-14T06:05:29.654Z,24.63
2023-05-14T06:06:29.656Z,24.65
2023-05-14T06:07:29.648Z,24.65
2023-05-14T06:08:29.728Z,24.65
2023-05-14T06:09:29.779Z,24.65
2023-05-14T06:10:29.903Z,24.65
2023-05-14T06:11:29.881Z,24.63
2023-05-14T06:12:29.960Z,24.63
2023-05-14T06:13:30.009Z,24.65
2023-05-14T06:14:30.066Z,24.65
2023-05-14T06:15:30.151Z,24.62
2023-05-14T06:16:30.222Z,24.65
2023-05-14T06:17:30.264Z,24.63
2023-05-14T06:18:30.289Z,24.62
2023-05-14T06:19:30.321Z,24.63
2023-05-14T06:20:30.353Z,24.65
2023-05-14T06:21:30.403Z,24.66
2023-05-14T06:22:30.428Z,24.63
2023-05-14T06:23:30.491Z,24.62
2023-05-14T06:24:30.556Z,24.66
2023-05-14T06:25:30.596Z,24.65
2023-05-14T06:26:30.710Z,24.65
2023-05-14T06:27:30.679Z,24.63
2023-05-14T06:28:30.747Z,24.65
2023-05-14T06:29:30.790Z,24.65
2023-05-14T06:30:30.800Z,24.65
2023-05-14T06:31:30.975Z,24.62
2023-05-14T06:32:30.948Z,24.63
2023-05-14T06:33:31.151Z,24.63
2023-05-14T06:34:31.055Z,24.65
2023-05-14T06:35:31.066Z,24.63
2023-05-14T06:36:31.535Z,24.65
2023-05-14T06:37:31.245Z,24.62
2023-05-14T06:38:31.265Z,24.65
2023-05-14T06:39:31.309Z,24.65
2023-05-14T06:40:31.355Z,24.65
2023-05-14T06:41:31.453Z,24.66
2023-05-14T06:42:31.498Z,24.65
2023-05-14T06:43:31.535Z,24.63
2023-05-14T06:44:31.619Z,24.63
2023-05-14T06:45:33.202Z,24.63
2023-05-14T06:46:32.043Z,24.62
2023-05-14T06:47:31.811Z,24.63
2023-05-14T06:48:31.895Z,24.62
2023-05-14T06:49:31.897Z,24.65
2023-05-14T06:50:31.957Z,24.63
2023-05-14T06:51:32.029Z,24.66
2023-05-14T06:52:32.090Z,24.63
2023-05-14T06:53:32.147Z,24.65
2023-05-14T06:54:32.188Z,24.65
2023-05-14T06:55:32.248Z,24.65
2023-05-14T06:56:32.311Z,24.63
2023-05-14T06:57:32.422Z,24.65
2023-05-14T06:58:32.457Z,24.62
2023-05-14T06:59:32.541Z,24.67
2023-05-14T07:00:32.551Z,24.63
2023-05-14T07:01:32.643Z,24.65
2023-05-14T07:02:32.727Z,24.65
2023-05-14T07:03:32.740Z,24.63
2023-05-14T07:04:32.859Z,24.63
2023-05-14T07:05:32.916Z,24.65
2023-05-14T07:06:32.924Z,24.65
2023-05-14T07:07:32.952Z,24.63
2023-05-14T07:08:33.053Z,24.63
2023-05-14T07:09:33.106Z,24.65
2023-05-14T07:10:33.150Z,24.63
2023-05-14T07:11:33.268Z,24.63
2023-05-14T07:12:33.277Z,24.63
2023-05-14T07:13:33.335Z,24.63
2023-05-14T07:14:33.404Z,24.63
2023-05-14T07:15:33.428Z,24.65
2023-05-14T07:16:33.521Z,24.63
2023-05-14T07:17:33.536Z,24.66
2023-05-14T07:18:33.647Z,24.65
2023-05-14T07:19:33.679Z,24.65
2023-05-14T07:20:33.761Z,24.66
2023-05-14T07:21:33.750Z,24.65
2023-05-14T07:22:33.867Z,24.63
2023-05-14T07:23:33.868Z,24.66
2023-05-14T07:24:33.965Z,24.63
2023-05-14T07:25:34.020Z,24.65
2023-05-14T07:26:34.068Z,24.65
2023-05-14T07:27:34.124Z,24.65
2023-05-14T07:28:34.180Z,24.66
2023-05-14T07:29:34.236Z,24.65
2023-05-14T07:30:34.302Z,24.65
2023-05-14T07:31:34.362Z,24.65
2023-05-14T07:32:34.466Z,24.66
2023-05-14T07:33:34.498Z,24.65
2023-05-14T07:34:34.526Z,24.66
2023-05-14T07:35:34.600Z,24.66
2023-05-14T07:36:34.639Z,24.66
2023-05-14T07:37:34.723Z,24.65
2023-05-14T07:38:34.769Z,24.66
2023-05-14T07:39:34.823Z,24.65
2023-05-14T07:40:34.872Z,24.66
2023-05-14T07:41:34.938Z,24.67
2023-05-14T07:42:36.938Z,24.66
2023-05-14T07:43:35.078Z,24.66
2023-05-14T07:44:35.223Z,24.66
2023-05-14T07:45:35.185Z,24.66
2023-05-14T07:46:35.279Z,24.67
2023-05-14T07:47:35.529Z,24.67
2023-05-14T07:48:35.435Z,24.67
2023-05-14T07:49:35.463Z,24.67
2023-05-14T07:50:35.536Z,24.70
2023-05-14T07:51:35.597Z,24.69
2023-05-14T07:52:35.686Z,24.70
2023-05-14T07:53:35.750Z,24.69
2023-05-14T07:54:35.794Z,24.69
2023-05-14T07:55:35.859Z,24.70
2023-05-14T07:56:35.912Z,24.72
2023-05-14T07:57:36.006Z,24.72
2023-05-14T07:58:36.024Z,24.72
2023-05-14T07:59:36.097Z,24.70
2023-05-14T08:00:36.137Z,24.72
2023-05-14T08:01:39.057Z,24.72
2023-05-14T08:02:36.285Z,24.73
2023-05-14T08:03:36.362Z,24.72
2023-05-14T08:04:36.480Z,24.72
2023-05-14T08:05:36.213Z,24.73
2023-05-14T08:06:36.242Z,24.74
2023-05-14T08:07:36.185Z,24.74
2023-05-14T08:08:36.213Z,24.74
2023-05-14T08:09:36.186Z,24.73
2023-05-14T08:10:36.314Z,24.73
2023-05-14T08:11:36.144Z,24.74
2023-05-14T08:12:36.181Z,24.74
2023-05-14T08:13:36.174Z,24.73
2023-05-14T08:14:36.219Z,24.74
2023-05-14T08:15:36.153Z,24.76
2023-05-14T08:16:36.184Z,24.76
2023-05-14T08:17:36.179Z,24.74
2023-05-14T08:18:36.191Z,24.73
2023-05-14T08:19:36.094Z,24.74
2023-05-14T08:20:36.114Z,24.74
2023-05-14T08:21:36.086Z,24.74
2023-05-14T08:22:36.085Z,24.76
2023-05-14T08:23:36.069Z,24.77
2023-05-14T08:24:36.157Z,24.77
2023-05-14T08:25:36.070Z,24.80
2023-05-14T08:26:36.071Z,24.79
2023-05-14T08:27:36.047Z,24.79
2023-05-14T08:28:36.077Z,24.79
2023-05-14T08:29:36.035Z,24.79
2023-05-14T08:30:36.076Z,24.80
2023-05-14T08:31:36.056Z,24.83
2023-05-14T08:32:36.088Z,24.82
2023-05-14T08:33:36.038Z,24.83
2023-05-14T08:34:36.031Z,24.83
2023-05-14T08:35:36.099Z,24.83
2023-05-14T08:36:36.118Z,24.84
2023-05-14T08:37:36.192Z,24.84
2023-05-14T08:38:36.272Z,24.86
2023-05-14T08:39:36.308Z,24.86
2023-05-14T08:40:36.437Z,24.87
2023-05-14T08:41:36.433Z,24.90
2023-05-14T08:42:36.602Z,24.91
2023-05-14T08:43:36.538Z,24.91
2023-05-14T08:44:36.614Z,24.93
2023-05-14T08:45:36.681Z,24.93
2023-05-14T08:46:36.701Z,24.94
2023-05-14T08:47:36.805Z,24.95
2023-05-14T08:48:36.849Z,24.95
2023-05-14T08:49:36.867Z,24.98
2023-05-14T08:50:36.977Z,24.97
2023-05-14T08:51:37.005Z,25.00
2023-05-14T08:52:37.064Z,24.98
2023-05-14T08:53:37.114Z,25.00
2023-05-14T08:54:37.141Z,25.01
2023-05-14T08:55:37.163Z,25.00
2023-05-14T08:56:37.252Z,25.01
2023-05-14T08:57:37.625Z,25.00
2023-05-14T08:58:37.321Z,25.03
2023-05-14T08:59:37.412Z,25.03
2023-05-14T09:00:37.447Z,25.03
2023-05-14T09:01:37.590Z,25.03
2023-05-14T09:02:38.126Z,25.04
2023-05-14T09:03:37.640Z,25.06
2023-05-14T09:04:37.619Z,25.10
2023-05-14T09:05:37.678Z,25.09
2023-05-14T09:06:37.700Z,25.09
2023-05-14T09:07:38.127Z,25.09
2023-05-14T09:08:37.774Z,25.09
2023-05-14T09:09:37.855Z,25.10
2023-05-14T09:10:37.874Z,25.10
2023-05-14T09:11:37.891Z,25.10
2023-05-14T09:12:38.124Z,25.10
2023-05-14T09:13:37.981Z,25.10
2023-05-14T09:14:38.016Z,25.07
2023-05-14T09:15:38.057Z,25.09
2023-05-14T09:16:38.169Z,25.10
2023-05-14T09:17:38.216Z,25.07
2023-05-14T09:18:38.212Z,25.10
2023-05-14T09:19:38.234Z,25.07
2023-05-14T09:20:38.289Z,25.07
2023-05-14T09:21:38.311Z,25.07
2023-05-14T09:22:38.357Z,25.10
2023-05-14T09:23:38.418Z,25.10
2023-05-14T09:24:38.422Z,25.07
2023-05-14T09:25:38.552Z,25.09
2023-05-14T09:26:38.536Z,25.07
2023-05-14T09:27:38.626Z,25.09
2023-05-14T09:28:38.640Z,25.06
2023-05-14T09:29:38.679Z,25.10
2023-05-14T09:30:38.740Z,25.10
2023-05-14T09:31:38.801Z,25.09
2023-05-14T09:32:38.820Z,25.09
2023-05-14T09:33:38.851Z,25.07
2023-05-14T09:34:38.913Z,25.07
2023-05-14T09:35:38.917Z,25.09
2023-05-14T09:36:38.999Z,25.09
2023-05-14T09:37:39.042Z,25.10
2023-05-14T09:38:39.056Z,25.09
2023-05-14T09:39:39.073Z,25.09
2023-05-14T09:40:39.137Z,25.09
2023-05-14T09:41:39.160Z,25.07
2023-05-14T09:42:39.196Z,25.09
2023-05-14T09:43:39.262Z,25.07
2023-05-14T09:44:39.294Z,25.06
2023-05-14T09:45:39.337Z,25.09
2023-05-14T09:46:39.446Z,25.06
2023-05-14T09:47:39.547Z,25.04
2023-05-14T09:48:39.492Z,25.07
2023-05-14T09:49:39.566Z,25.06
2023-05-14T09:50:39.564Z,25.07
2023-05-14T09:51:39.600Z,25.04
2023-05-14T09:52:39.657Z,25.04
2023-05-14T09:53:39.700Z,25.06
2023-05-14T09:54:39.741Z,25.06
2023-05-14T09:55:39.776Z,25.04
2023-05-14T09:56:39.856Z,25.06
2023-05-14T09:57:40.100Z,25.03
2023-05-14T09:58:39.936Z,25.04
2023-05-14T09:59:39.979Z,25.06
2023-05-14T10:00:39.991Z,25.03
2023-05-14T10:01:40.105Z,25.01
2023-05-14T10:02:40.150Z,25.03
2023-05-14T10:03:40.104Z,25.03
2023-05-14T10:04:40.170Z,25.06
2023-05-14T10:05:40.212Z,25.03
2023-05-14T10:06:40.263Z,25.06
2023-05-14T10:07:40.263Z,25.06
2023-05-14T10:08:40.303Z,25.04
2023-05-14T10:09:40.348Z,25.06
2023-05-14T10:10:40.388Z,25.03
2023-05-14T10:11:40.438Z,25.03
2023-05-14T10:12:40.514Z,25.00
2023-05-14T10:13:40.531Z,25.04
2023-05-14T10:14:40.561Z,25.03
2023-05-14T10:15:40.602Z,25.03
2023-05-14T10:16:40.703Z,25.01
2023-05-14T10:17:40.705Z,25.01
2023-05-14T10:18:40.785Z,25.01
2023-05-14T10:19:40.760Z,24.98
2023-05-14T10:20:40.806Z,25.01
2023-05-14T10:21:40.831Z,25.00
2023-05-14T10:22:41.125Z,25.01
2023-05-14T10:23:40.937Z,24.98
2023-05-14T10:24:40.987Z,25.01
2023-05-14T10:25:41.015Z,25.00
2023-05-14T10:26:41.094Z,25.00
2023-05-14T10:27:41.128Z,25.00
2023-05-14T10:28:41.129Z,25.01
2023-05-14T10:29:41.189Z,25.01
2023-05-14T10:30:41.201Z,24.98
2023-05-14T10:31:41.293Z,24.97
2023-05-14T10:32:41.690Z,24.97
2023-05-14T10:33:41.368Z,24.98
2023-05-14T10:34:41.440Z,24.97
2023-05-14T10:35:41.468Z,25.00
2023-05-14T10:36:41.497Z,24.98
2023-05-14T10:37:41.609Z,24.97
2023-05-14T10:38:41.591Z,24.98
2023-05-14T10:39:41.630Z,24.98
2023-05-14T10:40:41.662Z,24.97
2023-05-14T10:41:41.724Z,24.98
2023-05-14T10:42:42.155Z,24.97
2023-05-14T10:43:41.907Z,24.98
2023-05-14T10:44:41.866Z,24.97
2023-05-14T10:45:41.869Z,24.98
2023-05-14T10:46:41.983Z,24.98
2023-05-14T10:47:42.017Z,24.95
2023-05-14T10:48:42.030Z,24.95
2023-05-14T10:49:43.910Z,24.94
2023-05-14T10:50:42.157Z,24.95
2023-05-14T10:51:42.295Z,24.93
2023-05-14T10:52:42.631Z,24.95
2023-05-14T10:53:42.277Z,24.95
2023-05-14T10:54:42.290Z,24.94
2023-05-14T10:55:42.357Z,24.95
2023-05-14T10:56:42.401Z,24.97
2023-05-14T10:57:42.642Z,24.95
2023-05-14T10:58:42.473Z,24.94
2023-05-14T10:59:42.553Z,24.94
2023-05-14T11:00:42.552Z,24.94
2023-05-14T11:01:42.638Z,24.94
2023-05-14T11:02:43.216Z,24.94
2023-05-14T11:03:42.797Z,24.93
2023-05-14T11:04:42.759Z,24.93
2023-05-14T11:05:42.775Z,24.93
2023-05-14T11:06:42.866Z,24.95
2023-05-14T11:07:43.161Z,24.93
2023-05-14T11:08:43.052Z,24.93
2023-05-14T11:09:43.010Z,24.94
2023-05-14T11:10:43.030Z,24.93
2023-05-14T11:11:43.085Z,24.94
2023-05-14T11:12:43.110Z,24.93
2023-05-14T11:13:43.201Z,24.91
2023-05-14T11:14:43.191Z,24.93
2023-05-14T11:15:43.270Z,24.93
2023-05-14T11:16:43.379Z,24.93
2023-05-14T11:17:43.678Z,24.90
2023-05-14T11:18:43.419Z,24.94
2023-05-14T11:19:43.447Z,24.91
2023-05-14T11:20:43.474Z,24.93
2023-05-14T11:21:43.608Z,24.94
2023-05-14T11:22:43.607Z,24.93
2023-05-14T11:23:43.656Z,24.91
2023-05-14T11:24:43.672Z,24.90
2023-05-14T11:25:43.762Z,24.91
2023-05-14T11:26:43.800Z,24.94
2023-05-14T11:27:44.216Z,24.93
2023-05-14T11:28:43.900Z,24.90
2023-05-14T11:29:43.943Z,24.93
2023-05-14T11:30:43.951Z,24.94
2023-05-14T11:31:44.068Z,24.91
2023-05-14T11:32:44.134Z,24.93
2023-05-14T11:33:44.132Z,24.93
2023-05-14T11:34:44.153Z,24.91
2023-05-14T11:35:44.189Z,24.93
2023-05-14T11:36:44.230Z,24.93
2023-05-14T11:37:44.304Z,24.93
2023-05-14T11:38:44.339Z,24.91
2023-05-14T11:39:44.396Z,24.91
2023-05-14T11:40:44.433Z,24.93
2023-05-14T11:41:44.476Z,24.93
2023-05-14T11:42:44.548Z,24.91
2023-05-14T11:43:44.560Z,24.90
2023-05-14T11:44:44.622Z,24.91
2023-05-14T11:45:44.701Z,24.91
2023-05-14T11:46:44.675Z,24.91
2023-05-14T11:47:45.186Z,24.91
2023-05-14T11:48:44.767Z,24.91
2023-05-14T11:49:44.885Z,24.91
2023-05-14T11:50:44.888Z,24.91
2023-05-14T11:51:44.916Z,24.91
2023-05-14T11:52:45.161Z,24.91
2023-05-14T11:53:45.067Z,24.91
2023-05-14T11:54:45.085Z,24.91
2023-05-14T11:55:45.122Z,24.90
2023-05-14T11:56:45.174Z,24.89
2023-05-14T11:57:45.247Z,24.91
2023-05-14T11:58:45.280Z,24.90
2023-05-14T11:59:45.320Z,24.91
2023-05-14T12:00:45.403Z,24.89
2023-05-14T12:01:45.430Z,24.89
2023-05-14T12:02:45.837Z,24.91
2023-05-14T12:03:45.616Z,24.90
2023-05-14T12:04:45.661Z,24.90
2023-05-14T12:05:45.667Z,24.91
2023-05-14T12:06:45.709Z,24.89
2023-05-14T12:07:46.204Z,24.91
2023-05-14T12:08:45.808Z,24.89
2023-05-14T12:09:45.871Z,24.87
2023-05-14T12:10:45.921Z,24.87
2023-05-14T12:11:45.982Z,24.87
2023-05-14T12:12:46.156Z,24.91
2023-05-14T12:13:46.103Z,24.89
2023-05-14T12:14:46.127Z,24.89
2023-05-14T12:15:46.204Z,24.87
2023-05-14T12:16:46.538Z,24.87
2023-05-14T12:17:46.693Z,24.87
2023-05-14T12:18:46.364Z,24.87
2023-05-14T12:19:46.430Z,24.86
2023-05-14T12:20:46.462Z,24.87
2023-05-14T12:21:46.504Z,24.86
2023-05-14T12:22:46.584Z,24.87
2023-05-14T12:23:46.617Z,24.87
2023-05-14T12:24:46.679Z,24.86
2023-05-14T12:25:46.752Z,24.87
2023-05-14T12:26:46.784Z,24.86
2023-05-14T12:27:47.246Z,24.86
2023-05-14T12:28:46.919Z,24.84
2023-05-14T12:29:46.971Z,24.82
2023-05-14T12:30:47.013Z,24.84
2023-05-14T12:31:47.101Z,24.84
2023-05-14T12:32:47.199Z,24.86
2023-05-14T12:33:47.682Z,24.87
2023-05-14T12:34:47.247Z,24.87
2023-05-14T12:35:47.344Z,24.86
2023-05-14T12:36:47.373Z,24.86
2023-05-14T12:37:47.398Z,24.86
2023-05-14T12:38:47.478Z,24.86
2023-05-14T12:39:47.506Z,24.83
2023-05-14T12:40:47.570Z,24.87
2023-05-14T12:41:47.627Z,24.87
2023-05-14T12:42:47.684Z,24.83
2023-05-14T12:43:47.749Z,24.84
2023-05-14T12:44:47.789Z,24.86
2023-05-14T12:45:47.849Z,24.86
2023-05-14T12:46:47.930Z,24.84
2023-05-14T12:47:48.068Z,24.86
2023-05-14T12:48:48.781Z,24.86
2023-05-14T12:49:48.073Z,24.83
2023-05-14T12:50:48.147Z,24.86
2023-05-14T12:51:48.199Z,24.84
2023-05-14T12:52:48.262Z,24.84